createdAt,value
2022-08-22T00:00:22.067Z,0
2022-08-22T00:01:31.253Z,0
2022-08-22T00:02:40.407Z,0
2022-08-22T00:03:49.575Z,0
2022-08-22T00:04:57.746Z,0
2022-08-22T00:06:06.935Z,0
2022-08-22T00:07:16.113Z,0
2022-08-22T00:08:25.266Z,0
2022-08-22T00:09:34.444Z,0
2022-08-22T00:10:43.622Z,0
2022-08-22T00:11:52.797Z,0
2022-08-22T00:13:01.970Z,0
2022-08-22T00:14:11.143Z,0
2022-08-22T00:15:20.301Z,0
2022-08-22T00:16:29.472Z,0
2022-08-22T00:17:38.647Z,0
2022-08-22T00:18:47.839Z,0
2022-08-22T00:19:56.040Z,0
2022-08-22T00:21:05.212Z,0
2022-08-22T00:22:14.366Z,0
2022-08-22T00:23:23.538Z,0
2022-08-22T00:24:32.708Z,0
2022-08-22T00:25:41.869Z,0
2022-08-22T00:26:51.043Z,0
2022-08-22T00:28:00.248Z,0
2022-08-22T00:29:09.382Z,0
2022-08-22T00:30:18.561Z,0
2022-08-22T00:31:27.738Z,0
2022-08-22T00:32:36.906Z,0
2022-08-22T00:33:46.074Z,0
2022-08-22T00:34:55.261Z,0
2022-08-22T00:36:03.436Z,0
2022-08-22T00:37:12.610Z,0
2022-08-22T00:38:21.781Z,0
2022-08-22T00:39:30.968Z,0
2022-08-22T00:40:40.138Z,0
2022-08-22T00:41:49.301Z,0
2022-08-22T00:42:58.473Z,0
2022-08-22T00:44:07.647Z,0
2022-08-22T00:45:16.838Z,0
2022-08-22T00:46:25.999Z,0
2022-08-22T00:47:35.179Z,0
2022-08-22T00:49:53.510Z,0
2022-08-22T00:51:01.708Z,0
2022-08-22T00:52:10.874Z,0
2022-08-22T00:53:20.046Z,0
2022-08-22T00:54:29.217Z,0
2022-08-22T00:55:38.398Z,0
2022-08-22T00:56:47.563Z,0
2022-08-22T00:57:56.738Z,0
2022-08-22T00:59:05.906Z,0
2022-08-22T01:00:15.083Z,0
2022-08-22T01:01:24.258Z,0
2022-08-22T01:02:33.415Z,0
2022-08-22T01:04:51.767Z,0
2022-08-22T01:05:59.953Z,0
2022-08-22T01:07:09.144Z,0
2022-08-22T01:08:18.298Z,0
2022-08-22T01:09:27.481Z,0
2022-08-22T01:10:36.663Z,0
2022-08-22T01:11:45.833Z,0
2022-08-22T01:12:55.000Z,0
2022-08-22T01:14:04.182Z,0
2022-08-22T01:15:13.333Z,0
2022-08-22T01:16:22.531Z,0
2022-08-22T01:17:31.684Z,0
2022-08-22T01:18:40.867Z,0
2022-08-22T01:19:50.022Z,0
2022-08-22T01:20:58.223Z,0
2022-08-22T01:22:07.391Z,0
2022-08-22T01:23:16.557Z,0
2022-08-22T01:24:25.737Z,0
2022-08-22T01:25:34.925Z,0
2022-08-22T01:26:44.089Z,0
2022-08-22T01:27:53.263Z,0
2022-08-22T01:29:02.436Z,0
2022-08-22T01:30:11.589Z,0
2022-08-22T01:31:20.766Z,0
2022-08-22T01:32:29.950Z,0
2022-08-22T01:33:39.127Z,0
2022-08-22T01:34:48.281Z,0
2022-08-22T01:37:05.664Z,0
2022-08-22T01:38:14.827Z,0
2022-08-22T01:39:23.990Z,0
2022-08-22T01:40:33.173Z,0
2022-08-22T01:41:42.340Z,0
2022-08-22T01:42:51.522Z,0
2022-08-22T01:44:00.701Z,0
2022-08-22T01:45:09.858Z,0
2022-08-22T01:46:19.022Z,0
2022-08-22T01:47:28.219Z,0
2022-08-22T01:48:37.379Z,0
2022-08-22T01:49:46.539Z,0
2022-08-22T01:50:54.727Z,0
2022-08-22T01:52:03.906Z,0
2022-08-22T01:53:13.113Z,0
2022-08-22T01:54:22.247Z,0
2022-08-22T01:55:31.423Z,0
2022-08-22T01:56:40.606Z,0
2022-08-22T01:57:49.810Z,0
2022-08-22T01:58:58.950Z,0
2022-08-22T02:00:08.119Z,0
2022-08-22T02:01:17.287Z,0
2022-08-22T02:02:26.461Z,0
2022-08-22T02:03:35.635Z,0
2022-08-22T02:04:44.800Z,0
2022-08-22T02:05:52.991Z,0
2022-08-22T02:07:02.165Z,0
2022-08-22T02:08:11.344Z,0
2022-08-22T02:09:20.511Z,0
2022-08-22T02:10:29.699Z,0
2022-08-22T02:11:38.859Z,0
2022-08-22T02:12:48.023Z,0
2022-08-22T02:13:57.196Z,0
2022-08-22T02:15:06.379Z,0
2022-08-22T02:16:15.541Z,0
2022-08-22T02:17:24.715Z,0
2022-08-22T02:18:33.888Z,0
2022-08-22T02:19:43.083Z,0
2022-08-22T02:20:51.255Z,0
2022-08-22T02:22:00.428Z,0
2022-08-22T02:23:09.601Z,0
2022-08-22T02:24:18.770Z,0
2022-08-22T02:25:27.941Z,0
2022-08-22T02:26:37.113Z,0
2022-08-22T02:27:46.314Z,0
2022-08-22T02:28:55.462Z,0
2022-08-22T02:30:04.632Z,0
2022-08-22T02:31:13.808Z,0
2022-08-22T02:32:22.984Z,0
2022-08-22T02:33:32.145Z,0
2022-08-22T02:34:41.326Z,0
2022-08-22T02:35:49.509Z,0
2022-08-22T02:36:58.696Z,0
2022-08-22T02:38:07.864Z,0
2022-08-22T02:39:17.041Z,0
2022-08-22T02:40:26.198Z,0
2022-08-22T02:41:35.384Z,0
2022-08-22T02:42:44.546Z,0
2022-08-22T02:43:53.714Z,0
2022-08-22T02:45:02.895Z,0
2022-08-22T02:46:12.064Z,0
2022-08-22T02:47:21.236Z,0
2022-08-22T02:48:30.425Z,0
2022-08-22T02:49:39.588Z,0
2022-08-22T02:50:47.775Z,0
2022-08-22T02:51:56.942Z,0
2022-08-22T02:53:06.126Z,0
2022-08-22T02:54:15.293Z,0
2022-08-22T02:55:24.461Z,0
2022-08-22T02:56:33.632Z,0
2022-08-22T02:57:42.812Z,0
2022-08-22T02:58:51.995Z,0
2022-08-22T03:00:01.163Z,0
2022-08-22T03:01:10.328Z,0
2022-08-22T03:02:19.505Z,0
2022-08-22T03:03:28.675Z,0
2022-08-22T03:04:37.841Z,0
2022-08-22T03:05:46.046Z,0
2022-08-22T03:06:55.204Z,0
2022-08-22T03:08:04.389Z,0
2022-08-22T03:09:13.556Z,0
2022-08-22T03:10:22.731Z,0
2022-08-22T03:11:31.900Z,0
2022-08-22T03:12:41.060Z,0
2022-08-22T03:13:50.258Z,0
2022-08-22T03:14:59.427Z,0
2022-08-22T03:16:08.593Z,0
2022-08-22T03:17:17.749Z,0
2022-08-22T03:18:26.929Z,0
2022-08-22T03:19:36.127Z,0
2022-08-22T03:20:44.289Z,0
2022-08-22T03:21:53.472Z,0
2022-08-22T03:23:02.641Z,0
2022-08-22T03:24:11.805Z,0
2022-08-22T03:25:20.978Z,0
2022-08-22T03:26:30.162Z,0
2022-08-22T03:27:39.333Z,0
2022-08-22T03:28:48.503Z,0
2022-08-22T03:29:57.678Z,0
2022-08-22T03:31:06.845Z,0
2022-08-22T03:32:16.017Z,0
2022-08-22T03:33:25.191Z,0
2022-08-22T03:34:34.366Z,0
2022-08-22T03:35:42.549Z,0
2022-08-22T03:36:51.728Z,0
2022-08-22T03:38:00.891Z,0
2022-08-22T03:39:10.063Z,0
2022-08-22T03:40:19.236Z,0
2022-08-22T03:41:27.434Z,0
2022-08-22T03:42:36.626Z,0
2022-08-22T03:43:45.781Z,0
2022-08-22T03:44:54.954Z,0
2022-08-22T03:46:04.147Z,0
2022-08-22T03:47:13.294Z,0
2022-08-22T03:48:22.480Z,0
2022-08-22T03:49:31.645Z,0
2022-08-22T03:50:40.819Z,3
2022-08-22T03:51:49.982Z,3
2022-08-22T03:52:59.162Z,3
2022-08-22T03:54:08.334Z,3
2022-08-22T03:55:17.514Z,4
2022-08-22T03:56:25.693Z,0
2022-08-22T03:57:34.864Z,4
2022-08-22T03:58:44.031Z,4
2022-08-22T03:59:53.205Z,9
2022-08-22T04:01:02.377Z,1
2022-08-22T04:02:11.548Z,9
2022-08-22T04:03:20.716Z,13
2022-08-22T04:04:29.895Z,13
2022-08-22T04:05:39.062Z,18
2022-08-22T04:06:48.242Z,14
2022-08-22T04:07:57.443Z,10
2022-08-22T04:09:06.595Z,36
2022-08-22T04:10:15.776Z,32
2022-08-22T04:11:23.958Z,41
2022-08-22T04:12:33.123Z,38
2022-08-22T04:13:42.286Z,26
2022-08-22T04:14:51.465Z,44
2022-08-22T04:16:00.634Z,57
2022-08-22T04:17:09.808Z,63
2022-08-22T04:18:18.982Z,85
2022-08-22T04:19:28.151Z,95
2022-08-22T04:20:37.316Z,105
2022-08-22T04:21:46.500Z,120
2022-08-22T04:22:55.665Z,135
2022-08-22T04:24:04.839Z,149
2022-08-22T04:25:14.016Z,186
2022-08-22T04:26:22.204Z,210
2022-08-22T04:27:31.370Z,221
2022-08-22T04:28:40.548Z,245
2022-08-22T04:29:49.721Z,260
2022-08-22T04:30:58.899Z,293
2022-08-22T04:32:08.076Z,330
2022-08-22T04:33:17.235Z,358
2022-08-22T04:34:26.415Z,396
2022-08-22T04:35:35.584Z,416
2022-08-22T04:36:44.753Z,448
2022-08-22T04:37:53.917Z,485
2022-08-22T04:39:03.099Z,523
2022-08-22T04:40:12.280Z,547
2022-08-22T04:41:20.450Z,584
2022-08-22T04:42:29.629Z,622
2022-08-22T04:43:38.800Z,664
2022-08-22T04:44:47.995Z,702
2022-08-22T04:45:57.156Z,744
2022-08-22T04:47:06.320Z,794
2022-08-22T04:48:15.495Z,840
2022-08-22T04:49:24.672Z,865
2022-08-22T04:50:33.828Z,887
2022-08-22T04:51:43.013Z,905
2022-08-22T04:52:52.173Z,932
2022-08-22T04:54:01.354Z,967
2022-08-22T04:55:10.522Z,1007
2022-08-22T04:56:18.721Z,1039
2022-08-22T04:57:27.885Z,1063
2022-08-22T04:59:46.276Z,1121
2022-08-22T05:00:55.405Z,1130
2022-08-22T05:02:04.588Z,1149
2022-08-22T05:03:13.755Z,1185
2022-08-22T05:04:22.916Z,1233
2022-08-22T05:05:32.096Z,1271
2022-08-22T05:06:41.261Z,1344
2022-08-22T05:07:50.439Z,1255
2022-08-22T05:08:59.607Z,1305
2022-08-22T05:10:08.784Z,1336
2022-08-22T05:11:16.973Z,1350
2022-08-22T05:12:26.159Z,1344
2022-08-22T05:13:35.330Z,1363
2022-08-22T05:14:44.509Z,1392
2022-08-22T05:15:53.655Z,1423
2022-08-22T05:17:02.844Z,1459
2022-08-22T05:18:12.023Z,1713
2022-08-22T05:19:21.178Z,1506
2022-08-22T05:20:30.350Z,1477
2022-08-22T05:21:39.536Z,1556
2022-08-22T05:22:48.688Z,1592
2022-08-22T05:23:57.861Z,1654
2022-08-22T05:25:07.037Z,2015
2022-08-22T05:26:15.256Z,1805
2022-08-22T05:27:24.416Z,1489
2022-08-22T05:28:33.581Z,1682
2022-08-22T05:29:42.744Z,1814
2022-08-22T05:30:51.924Z,1871
2022-08-22T05:32:01.124Z,1855
2022-08-22T05:33:10.274Z,1884
2022-08-22T05:34:19.438Z,1979
2022-08-22T05:35:28.618Z,2067
2022-08-22T05:36:37.795Z,2125
2022-08-22T05:37:46.965Z,2224
2022-08-22T05:38:56.126Z,2223
2022-08-22T05:40:05.347Z,3940
2022-08-22T05:41:13.491Z,3763
2022-08-22T05:42:22.659Z,2533
2022-08-22T05:43:31.837Z,1117
2022-08-22T05:44:41.006Z,1758
2022-08-22T05:45:50.182Z,2411
2022-08-22T05:46:59.341Z,2562
2022-08-22T05:48:08.525Z,2589
2022-08-22T05:49:17.687Z,2744
2022-08-22T05:50:26.864Z,2724
2022-08-22T05:51:36.046Z,2825
2022-08-22T05:52:45.231Z,2987
2022-08-22T05:53:54.398Z,2934
2022-08-22T05:55:03.570Z,2987
2022-08-22T05:56:11.753Z,3023
2022-08-22T05:57:20.919Z,3071
2022-08-22T05:58:30.088Z,3132
2022-08-22T05:59:39.259Z,3192
2022-08-22T06:00:48.447Z,3269
2022-08-22T06:01:57.611Z,3484
2022-08-22T06:03:06.781Z,3375
2022-08-22T06:04:15.946Z,3594
2022-08-22T06:05:25.125Z,3560
2022-08-22T06:06:34.303Z,3634
2022-08-22T06:07:43.464Z,4014
2022-08-22T06:08:52.637Z,3860
2022-08-22T06:10:01.818Z,6719
2022-08-22T06:11:10.012Z,4292
2022-08-22T06:12:19.182Z,3149
2022-08-22T06:13:28.356Z,1953
2022-08-22T06:14:37.521Z,3727
2022-08-22T06:15:46.693Z,3868
2022-08-22T06:16:55.872Z,4259
2022-08-22T06:18:05.039Z,4264
2022-08-22T06:19:14.206Z,4479
2022-08-22T06:20:23.376Z,4384
2022-08-22T06:21:32.560Z,6145
2022-08-22T06:22:41.731Z,2914
2022-08-22T06:23:50.912Z,5404
2022-08-22T06:25:00.069Z,3897
2022-08-22T06:26:08.264Z,4679
2022-08-22T06:27:17.476Z,4641
2022-08-22T06:28:26.625Z,4593
2022-08-22T06:29:35.787Z,5125
2022-08-22T06:30:44.951Z,4771
2022-08-22T06:31:54.125Z,4709
2022-08-22T06:33:03.295Z,5019
2022-08-22T06:34:12.467Z,4917
2022-08-22T06:35:21.647Z,5085
2022-08-22T06:36:30.818Z,5115
2022-08-22T06:37:39.989Z,4918
2022-08-22T06:38:49.184Z,5199
2022-08-22T06:39:58.336Z,5564
2022-08-22T06:41:06.514Z,7548
2022-08-22T06:42:15.704Z,6710
2022-08-22T06:43:24.873Z,6133
2022-08-22T06:44:34.040Z,5082
2022-08-22T06:45:43.217Z,8519
2022-08-22T06:46:52.387Z,6432
2022-08-22T06:48:01.576Z,6215
2022-08-22T06:49:10.730Z,6185
2022-08-22T06:50:19.909Z,6037
2022-08-22T06:51:29.076Z,6190
2022-08-22T06:52:38.255Z,6261
2022-08-22T06:53:47.422Z,6184
2022-08-22T06:54:56.597Z,6426
2022-08-22T06:56:04.784Z,5740
2022-08-22T06:57:13.948Z,6825
2022-08-22T06:58:23.127Z,6509
2022-08-22T06:59:32.309Z,6621
2022-08-22T07:00:41.478Z,6684
2022-08-22T07:01:50.660Z,6108
2022-08-22T07:02:59.817Z,7827
2022-08-22T07:04:08.997Z,6988
2022-08-22T07:05:18.159Z,6686
2022-08-22T07:06:27.355Z,6168
2022-08-22T07:07:36.508Z,8065
2022-08-22T07:08:45.675Z,6556
2022-08-22T07:09:54.871Z,7165
2022-08-22T07:11:03.046Z,7021
2022-08-22T07:12:12.208Z,5857
2022-08-22T07:13:21.397Z,5384
2022-08-22T07:14:30.559Z,7944
2022-08-22T07:15:39.727Z,8760
2022-08-22T07:16:48.898Z,6175
2022-08-22T07:17:58.074Z,10018
2022-08-22T07:19:07.258Z,10882
2022-08-22T07:20:16.422Z,4870
2022-08-22T07:21:25.601Z,9859
2022-08-22T07:22:34.781Z,9504
2022-08-22T07:23:43.934Z,7359
2022-08-22T07:24:53.123Z,12643
2022-08-22T07:26:02.291Z,7296
2022-08-22T07:27:10.467Z,12931
2022-08-22T07:28:19.644Z,3613
2022-08-22T07:29:28.832Z,10756
2022-08-22T07:30:37.995Z,7299
2022-08-22T07:31:47.166Z,9212
2022-08-22T07:32:56.335Z,6818
2022-08-22T07:34:04.522Z,9448
2022-08-22T07:35:13.695Z,12381
2022-08-22T07:36:22.881Z,3536
2022-08-22T07:37:32.047Z,13423
2022-08-22T07:38:41.217Z,8904
2022-08-22T07:39:50.411Z,4677
2022-08-22T07:40:59.565Z,8265
2022-08-22T07:42:08.727Z,5804
2022-08-22T07:43:17.908Z,9485
2022-08-22T07:44:27.096Z,9937
2022-08-22T07:45:36.259Z,9898
2022-08-22T07:46:45.424Z,11754
2022-08-22T07:47:54.597Z,7654
2022-08-22T07:49:02.793Z,8472
2022-08-22T07:50:11.960Z,9630
2022-08-22T07:51:21.135Z,8078
2022-08-22T07:52:30.300Z,7991
2022-08-22T07:53:39.463Z,7289
2022-08-22T07:54:48.648Z,8467
2022-08-22T07:57:06.996Z,7298
2022-08-22T07:58:16.171Z,6586
2022-08-22T07:59:25.343Z,8021
2022-08-22T08:00:34.514Z,6404
2022-08-22T08:02:52.861Z,7612
2022-08-22T08:04:01.038Z,7376
2022-08-22T08:05:10.222Z,7695
2022-08-22T08:06:19.402Z,7558
2022-08-22T08:07:28.584Z,7479
2022-08-22T08:08:37.732Z,7503
2022-08-22T08:09:46.900Z,7756
2022-08-22T08:10:56.077Z,7698
2022-08-22T08:12:05.245Z,7794
2022-08-22T08:13:14.423Z,7811
2022-08-22T08:14:23.595Z,7843
2022-08-22T08:15:32.768Z,7777
2022-08-22T08:16:41.942Z,8009
2022-08-22T08:17:51.104Z,7866
2022-08-22T08:18:59.305Z,7816
2022-08-22T08:20:08.468Z,7713
2022-08-22T08:21:17.650Z,7718
2022-08-22T08:22:26.816Z,7689
2022-08-22T08:23:36.058Z,7757
2022-08-22T08:24:45.163Z,7911
2022-08-22T08:25:54.339Z,7954
2022-08-22T08:27:03.512Z,7987
2022-08-22T08:28:12.697Z,8116
2022-08-22T08:29:21.859Z,8230
2022-08-22T08:30:31.025Z,8157
2022-08-22T08:31:40.209Z,8017
2022-08-22T08:32:49.378Z,8021
2022-08-22T08:33:58.600Z,7951
2022-08-22T08:35:06.737Z,8367
2022-08-22T08:36:15.908Z,7965
2022-08-22T08:37:25.107Z,8054
2022-08-22T08:38:34.250Z,8167
2022-08-22T08:39:43.428Z,8068
2022-08-22T08:40:52.598Z,7968
2022-08-22T08:42:01.781Z,8368
2022-08-22T08:43:10.944Z,9010
2022-08-22T08:44:20.117Z,8853
2022-08-22T08:45:29.310Z,7700
2022-08-22T08:46:38.460Z,10235
2022-08-22T08:47:47.648Z,10823
2022-08-22T08:48:56.839Z,10468
2022-08-22T08:50:05.012Z,10352
2022-08-22T08:51:14.167Z,9185
2022-08-22T08:52:23.365Z,9336
2022-08-22T08:53:32.517Z,11989
2022-08-22T08:54:41.725Z,9263
2022-08-22T08:55:50.906Z,10556
2022-08-22T08:57:00.042Z,9665
2022-08-22T08:58:09.209Z,7309
2022-08-22T08:59:18.408Z,14181
2022-08-22T09:00:27.543Z,9819
2022-08-22T09:01:36.720Z,12468
2022-08-22T09:02:45.899Z,10688
2022-08-22T09:03:55.064Z,11429
2022-08-22T09:05:04.270Z,9651
2022-08-22T09:06:12.466Z,9863
2022-08-22T09:07:21.610Z,11725
2022-08-22T09:08:30.792Z,10866
2022-08-22T09:09:39.939Z,10544
2022-08-22T09:10:49.135Z,10067
2022-08-22T09:11:58.291Z,15081
2022-08-22T09:13:07.481Z,12360
2022-08-22T09:14:16.631Z,13594
2022-08-22T09:15:25.851Z,12922
2022-08-22T09:16:35.021Z,12075
2022-08-22T09:17:44.196Z,12438
2022-08-22T09:18:53.352Z,12065
2022-08-22T09:20:02.517Z,12024
2022-08-22T09:21:10.687Z,11894
2022-08-22T09:22:19.865Z,11845
2022-08-22T09:23:29.079Z,11227
2022-08-22T09:24:38.200Z,11723
2022-08-22T09:25:47.380Z,12017
2022-08-22T09:26:56.542Z,11603
2022-08-22T09:29:14.910Z,11573
2022-08-22T09:30:24.092Z,11653
2022-08-22T09:31:33.239Z,11057
2022-08-22T09:32:42.429Z,11658
2022-08-22T09:33:51.603Z,11564
2022-08-22T09:35:00.759Z,10740
2022-08-22T09:36:08.949Z,10772
2022-08-22T09:37:18.140Z,13538
2022-08-22T09:38:27.309Z,11616
2022-08-22T09:39:36.470Z,11744
2022-08-22T09:40:45.629Z,10840
2022-08-22T09:41:54.835Z,11482
2022-08-22T09:43:04.018Z,12285
2022-08-22T09:44:13.152Z,12006
2022-08-22T09:45:22.367Z,12239
2022-08-22T09:46:31.491Z,10236
2022-08-22T09:47:40.674Z,15053
2022-08-22T09:48:49.889Z,11161
2022-08-22T09:49:59.019Z,10895
2022-08-22T09:51:07.205Z,14279
2022-08-22T09:52:16.370Z,11671
2022-08-22T09:53:25.582Z,11713
2022-08-22T09:54:34.756Z,13284
2022-08-22T09:55:43.917Z,9372
2022-08-22T09:56:53.077Z,14533
2022-08-22T09:58:02.234Z,9625
2022-08-22T09:59:11.427Z,14479
2022-08-22T10:00:20.579Z,13324
2022-08-22T10:01:29.776Z,11549
2022-08-22T10:02:38.939Z,11586
2022-08-22T10:03:48.113Z,10413
2022-08-22T10:04:57.275Z,11260
2022-08-22T10:06:06.478Z,12865
2022-08-22T10:07:14.633Z,11526
2022-08-22T10:08:23.815Z,6913
2022-08-22T10:09:32.993Z,19779
2022-08-22T10:10:42.182Z,13369
2022-08-22T10:11:51.355Z,11083
2022-08-22T10:13:00.498Z,13359
2022-08-22T10:14:09.712Z,12767
2022-08-22T10:15:18.846Z,10662
2022-08-22T10:16:28.025Z,11088
2022-08-22T10:17:37.186Z,11506
2022-08-22T10:18:46.376Z,10974
2022-08-22T10:19:55.581Z,9001
2022-08-22T10:21:04.707Z,13341
2022-08-22T10:22:12.894Z,10621
2022-08-22T10:23:22.076Z,12471
2022-08-22T10:24:31.240Z,12112
2022-08-22T10:25:40.420Z,11643
2022-08-22T10:26:49.623Z,11286
2022-08-22T10:27:58.787Z,9476
2022-08-22T10:29:07.938Z,13392
2022-08-22T10:30:17.118Z,18138
2022-08-22T10:31:26.291Z,13631
2022-08-22T10:32:35.505Z,7332
2022-08-22T10:33:44.644Z,15505
2022-08-22T10:34:53.828Z,17494
2022-08-22T10:36:03.020Z,13859
2022-08-22T10:37:11.166Z,15341
2022-08-22T10:38:20.337Z,13836
2022-08-22T10:39:29.497Z,8050
2022-08-22T10:40:38.683Z,17527
2022-08-22T10:41:47.870Z,10835
2022-08-22T10:42:57.054Z,14225
2022-08-22T10:44:06.197Z,15893
2022-08-22T10:45:15.377Z,13017
2022-08-22T10:46:24.550Z,14459
2022-08-22T10:47:33.712Z,15133
2022-08-22T10:48:42.930Z,12401
2022-08-22T10:49:52.062Z,13462
2022-08-22T10:51:01.247Z,12141
2022-08-22T10:52:09.434Z,13949
2022-08-22T10:53:18.601Z,13362
2022-08-22T10:56:46.155Z,14889
2022-08-22T10:57:55.339Z,14504
2022-08-22T10:59:04.465Z,11802
2022-08-22T11:00:13.662Z,11801
2022-08-22T11:01:22.823Z,12037
2022-08-22T11:02:32.019Z,12360
2022-08-22T11:03:41.173Z,12679
2022-08-22T11:04:50.318Z,11620
2022-08-22T11:05:59.514Z,10828
2022-08-22T11:07:08.672Z,10622
2022-08-22T11:08:16.865Z,11910
2022-08-22T11:09:26.029Z,10138
2022-08-22T11:10:35.247Z,9344
2022-08-22T11:11:44.409Z,10575
2022-08-22T11:12:53.590Z,10236
2022-08-22T11:14:02.719Z,10092
2022-08-22T11:15:11.905Z,10368
2022-08-22T11:16:21.058Z,10655
2022-08-22T11:17:30.250Z,9998
2022-08-22T11:18:39.415Z,9522
2022-08-22T11:19:47.630Z,9120
2022-08-22T11:20:55.800Z,9399
2022-08-22T11:22:04.965Z,10635
2022-08-22T11:23:14.160Z,10447
2022-08-22T11:24:23.322Z,10379
2022-08-22T11:25:32.487Z,10208
2022-08-22T11:26:40.733Z,9957
2022-08-22T11:27:49.859Z,10377
2022-08-22T11:28:59.030Z,10733
2022-08-22T11:30:08.242Z,10088
2022-08-22T11:31:17.385Z,10438
2022-08-22T11:32:26.567Z,10562
2022-08-22T11:33:35.731Z,10700
2022-08-22T11:34:44.912Z,10743
2022-08-22T11:35:54.079Z,10772
2022-08-22T11:37:03.226Z,10819
2022-08-22T11:38:12.424Z,10750
2022-08-22T11:39:21.579Z,10868
2022-08-22T11:40:30.762Z,10895
2022-08-22T11:41:38.932Z,10910
2022-08-22T11:42:48.113Z,10895
2022-08-22T11:43:57.287Z,10878
2022-08-22T11:45:06.453Z,10953
2022-08-22T11:46:15.636Z,10976
2022-08-22T11:47:24.807Z,11036
2022-08-22T11:48:33.977Z,11153
2022-08-22T11:49:43.145Z,11257
2022-08-22T11:50:52.331Z,11318
2022-08-22T11:52:01.487Z,11410
2022-08-22T11:53:10.673Z,11535
2022-08-22T11:54:19.837Z,12099
2022-08-22T11:55:29.038Z,12417
2022-08-22T11:56:37.250Z,12811
2022-08-22T11:57:46.413Z,13609
2022-08-22T11:58:55.580Z,14788
2022-08-22T12:00:04.737Z,15566
2022-08-22T12:01:13.896Z,16846
2022-08-22T12:02:23.068Z,17897
2022-08-22T12:03:32.236Z,18134
2022-08-22T12:04:41.429Z,18461
2022-08-22T12:05:50.590Z,19100
2022-08-22T12:06:59.764Z,19193
2022-08-22T12:08:08.935Z,20048
2022-08-22T12:09:18.102Z,23390
2022-08-22T12:10:27.270Z,23234
2022-08-22T12:11:35.500Z,21906
2022-08-22T12:12:44.682Z,22142
2022-08-22T12:13:53.822Z,22186
2022-08-22T12:15:03.038Z,21345
2022-08-22T12:16:12.155Z,23817
2022-08-22T12:17:21.334Z,17942
2022-08-22T12:18:29.564Z,19909
2022-08-22T12:19:37.709Z,25523
2022-08-22T12:20:46.885Z,17150
2022-08-22T12:25:23.579Z,29466
2022-08-22T12:27:41.931Z,25892
2022-08-22T12:28:51.125Z,20325
2022-08-22T12:32:18.632Z,10593
2022-08-22T12:33:27.837Z,43143
2022-08-22T12:34:36.001Z,5146
2022-08-22T12:35:45.188Z,35035
2022-08-22T12:36:54.327Z,47591
2022-08-22T12:38:03.525Z,49947
2022-08-22T12:39:12.676Z,27266
2022-08-22T12:40:20.875Z,43590
2022-08-22T12:41:30.046Z,27111
2022-08-22T12:42:38.225Z,46186
2022-08-22T12:43:47.402Z,49167
2022-08-22T12:44:56.579Z,53484
2022-08-22T12:46:05.738Z,44109
2022-08-22T12:47:14.939Z,26328
2022-08-22T12:48:24.093Z,44148
2022-08-22T12:49:33.302Z,39913
2022-08-22T12:50:42.447Z,35342
2022-08-22T12:51:51.598Z,28018
2022-08-22T12:52:59.826Z,45232
2022-08-22T12:54:07.987Z,38063
2022-08-22T12:55:17.207Z,27597
2022-08-22T12:56:26.347Z,22840
2022-08-22T12:57:35.510Z,22922
2022-08-22T12:58:44.693Z,23949
2022-08-22T12:59:53.856Z,20197
2022-08-22T13:01:03.063Z,17670
2022-08-22T13:02:12.201Z,18981
2022-08-22T13:03:21.407Z,18966
2022-08-22T13:04:30.543Z,19049
2022-08-22T13:05:39.737Z,19219
2022-08-22T13:06:47.919Z,19387
2022-08-22T13:07:57.100Z,18556
2022-08-22T13:09:05.277Z,18289
2022-08-22T13:10:14.444Z,18715
2022-08-22T13:11:23.628Z,18901
2022-08-22T13:12:32.793Z,19821
2022-08-22T13:13:41.999Z,20279
2022-08-22T13:14:51.134Z,19634
2022-08-22T13:16:00.322Z,18574
2022-08-22T13:17:09.491Z,17644
2022-08-22T13:18:18.674Z,16841
2022-08-22T13:19:27.841Z,16228
2022-08-22T13:20:37.013Z,16876
2022-08-22T13:21:46.185Z,17267
2022-08-22T13:22:55.365Z,16978
2022-08-22T13:24:03.551Z,17551
2022-08-22T13:25:12.706Z,16623
2022-08-22T13:26:21.878Z,14787
2022-08-22T13:27:31.097Z,15189
2022-08-22T13:28:40.265Z,13662
2022-08-22T13:29:49.436Z,13713
2022-08-22T13:30:58.615Z,13447
2022-08-22T13:32:07.746Z,12741
2022-08-22T13:33:16.920Z,12656
2022-08-22T13:34:26.091Z,14796
2022-08-22T13:35:35.274Z,11339
2022-08-22T13:36:44.428Z,10671
2022-08-22T13:37:53.602Z,10035
2022-08-22T13:39:01.839Z,10321
2022-08-22T13:40:10.974Z,11069
2022-08-22T13:41:20.186Z,11591
2022-08-22T13:42:29.320Z,11586
2022-08-22T13:43:38.495Z,11458
2022-08-22T13:44:47.698Z,11388
2022-08-22T13:45:56.883Z,11012
2022-08-22T13:47:06.001Z,10639
2022-08-22T13:48:15.169Z,12224
2022-08-22T13:49:24.353Z,11637
2022-08-22T13:50:33.520Z,11193
2022-08-22T13:51:42.731Z,11050
2022-08-22T13:52:51.892Z,11294
2022-08-22T13:54:01.041Z,11655
2022-08-22T13:55:09.243Z,11484
2022-08-22T13:56:18.399Z,10694
2022-08-22T13:57:27.597Z,10842
2022-08-22T13:58:36.747Z,9049
2022-08-22T13:59:45.936Z,9730
2022-08-22T14:00:55.090Z,9655
2022-08-22T14:02:04.268Z,9605
2022-08-22T14:03:13.440Z,9430
2022-08-22T14:04:22.616Z,9283
2022-08-22T14:06:40.961Z,8997
2022-08-22T14:07:50.139Z,8903
2022-08-22T14:08:59.337Z,8846
2022-08-22T14:10:08.484Z,8905
2022-08-22T14:11:16.656Z,9865
2022-08-22T14:13:35.015Z,8952
2022-08-22T14:14:44.193Z,8999
2022-08-22T14:15:53.380Z,8959
2022-08-22T14:17:02.531Z,8939
2022-08-22T14:18:11.702Z,8996
2022-08-22T14:19:20.900Z,9078
2022-08-22T14:20:30.043Z,9121
2022-08-22T14:21:39.216Z,9116
2022-08-22T14:22:48.412Z,9008
2022-08-22T14:23:57.568Z,8899
2022-08-22T14:25:06.731Z,9009
2022-08-22T14:26:14.924Z,9265
2022-08-22T14:27:24.096Z,9503
2022-08-22T14:28:33.261Z,9607
2022-08-22T14:29:42.438Z,9816
2022-08-22T14:30:51.599Z,10265
2022-08-22T14:32:00.774Z,10915
2022-08-22T14:33:10.002Z,11762
2022-08-22T14:34:19.148Z,12216
2022-08-22T14:35:28.302Z,13191
2022-08-22T14:36:37.476Z,15076
2022-08-22T14:37:46.641Z,16887
2022-08-22T14:38:55.823Z,16988
2022-08-22T14:40:05.000Z,16759
2022-08-22T14:41:14.182Z,16479
2022-08-22T14:42:22.351Z,14994
2022-08-22T14:43:31.517Z,14641
2022-08-22T14:44:40.723Z,14237
2022-08-22T14:45:49.879Z,20539
2022-08-22T14:46:59.059Z,16286
2022-08-22T14:48:08.217Z,10102
2022-08-22T14:49:17.389Z,58335
2022-08-22T14:50:26.572Z,41374
2022-08-22T14:51:35.739Z,29166
2022-08-22T14:52:44.942Z,27223
2022-08-22T14:53:54.069Z,32852
2022-08-22T14:55:03.252Z,22246
2022-08-22T14:56:12.424Z,17122
2022-08-22T14:57:21.601Z,20752
2022-08-22T14:58:29.804Z,24994
2022-08-22T14:59:38.971Z,18804
2022-08-22T15:00:48.155Z,18660
2022-08-22T15:01:57.318Z,17266
2022-08-22T15:03:06.472Z,16653
2022-08-22T15:04:15.682Z,16366
2022-08-22T15:05:24.878Z,15295
2022-08-22T15:06:33.994Z,15554
2022-08-22T15:07:43.175Z,16520
2022-08-22T15:08:52.335Z,18069
2022-08-22T15:10:01.508Z,19733
2022-08-22T15:11:10.691Z,19841
2022-08-22T15:12:19.867Z,19252
2022-08-22T15:13:28.056Z,18351
2022-08-22T15:14:37.215Z,21031
2022-08-22T15:15:46.384Z,19630
2022-08-22T15:16:55.591Z,18205
2022-08-22T15:18:03.753Z,15669
2022-08-22T15:19:12.964Z,14514
2022-08-22T15:20:22.100Z,13601
2022-08-22T15:21:31.268Z,15362
2022-08-22T15:22:40.481Z,13984
2022-08-22T15:23:49.639Z,14173
2022-08-22T15:24:58.801Z,14653
2022-08-22T15:26:07.970Z,15491
2022-08-22T15:27:17.127Z,15347
2022-08-22T15:28:26.313Z,17440
2022-08-22T15:29:35.512Z,20085
2022-08-22T15:30:44.659Z,21536
2022-08-22T15:34:12.180Z,19246
2022-08-22T15:35:21.345Z,19081
2022-08-22T15:36:29.541Z,17832
2022-08-22T15:37:38.700Z,16743
2022-08-22T15:38:47.897Z,15823
2022-08-22T15:39:57.062Z,14543
2022-08-22T15:41:06.219Z,14018
2022-08-22T15:42:15.421Z,13431
2022-08-22T15:44:33.740Z,15827
2022-08-22T15:45:41.940Z,15260
2022-08-22T15:46:50.127Z,15181
2022-08-22T15:47:59.339Z,15569
2022-08-22T15:49:08.475Z,20882
2022-08-22T15:50:17.629Z,17746
2022-08-22T15:51:26.810Z,17368
2022-08-22T15:52:36.032Z,16044
2022-08-22T15:53:45.177Z,12183
2022-08-22T15:54:54.318Z,24091
2022-08-22T15:56:03.494Z,18719